Time;durP1;ratioP1;P1;durP2;ratioP2;P2;SDS_P1;SDS_P2;PMS_P1;PMS_P2;Temp;Humidity;BMP_temperature;BMP_pressure;BME280_temperature;BME280_humidity;BME280_pressure;Samples;Min_cycle;Max_cycle;Signal;HPM_P1;HPM_P2
2023/07/09 00:01:14;;;;;;;3.47;2.67;;;;;;;;;;5037199;28;20208;-31
2023/07/09 00:03:42;;;;;;;3.47;2.70;;;;;;;;;;5049134;28;20213;-35
2023/07/09 00:06:09;;;;;;;3.38;2.55;;;;;;;;;;5051793;28;20216;-32
2023/07/09 00:08:36;;;;;;;2.65;2.40;;;;;;;;;;5042507;28;20237;-33
2023/07/09 00:11:04;;;;;;;2.67;1.92;;;;;;;;;;5041536;28;20217;-33
2023/07/09 00:13:31;;;;;;;2.53;2.10;;;;;;;;;;5039329;28;20204;-32
2023/07/09 00:16:00;;;;;;;2.88;2.00;;;;;;;;;;5050799;28;20209;-33
2023/07/09 00:18:27;;;;;;;3.20;2.38;;;;;;;;;;5048315;28;20231;-32
2023/07/09 00:20:55;;;;;;;2.65;2.35;;;;;;;;;;5135069;23;20209;-33
2023/07/09 00:23:23;;;;;;;3.00;2.55;;;;;;;;;;5254140;22;20327;-33
2023/07/09 00:25:50;;;;;;;3.35;2.65;;;;;;;;;;5058166;28;20214;-32
2023/07/09 00:28:18;;;;;;;3.85;2.72;;;;;;;;;;5056559;28;20231;-30
2023/07/09 00:30:45;;;;;;;3.70;2.40;;;;;;;;;;5051648;28;20208;-31
2023/07/09 00:33:14;;;;;;;5.80;2.40;;;;;;;;;;5042534;28;20197;-30
2023/07/09 00:35:41;;;;;;;3.60;2.58;;;;;;;;;;5042599;28;20209;-31
2023/07/09 00:38:14;;;;;;;5.35;2.30;;;;;;;;;;5050854;28;20842;-32
2023/07/09 00:40:47;;;;;;;4.43;2.78;;;;;;;;;;5046439;28;20208;-33
2023/07/09 00:43:16;;;;;;;4.38;2.65;;;;;;;;;;5048592;28;20232;-35
2023/07/09 00:45:43;;;;;;;2.47;2.15;;;;;;;;;;5051064;28;20214;-34
2023/07/09 00:48:13;;;;;;;2.90;2.53;;;;;;;;;;5043904;28;20233;-31
2023/07/09 00:50:45;;;;;;;3.35;2.13;;;;;;;;;;5039665;28;20219;-35
2023/07/09 00:53:18;;;;;;;3.42;2.67;;;;;;;;;;5050814;28;20197;-37
2023/07/09 00:55:46;;;;;;;2.58;2.38;;;;;;;;;;5043439;28;20219;-36
2023/07/09 00:58:16;;;;;;;4.65;2.60;;;;;;;;;;5047883;28;20221;-36
2023/07/09 01:00:47;;;;;;;5.18;2.60;;;;;;;;;;5046917;28;20212;-34
2023/07/09 01:03:16;;;;;;;3.30;2.78;;;;;;;;;;5049199;28;20250;-31
2023/07/09 01:05:44;;;;;;;2.83;2.55;;;;;;;;;;5050154;28;20204;-35
2023/07/09 01:08:12;;;;;;;3.05;2.45;;;;;;;;;;5049541;28;20229;-36
2023/07/09 01:10:41;;;;;;;4.68;2.63;;;;;;;;;;5047621;28;20205;-33
2023/07/09 01:13:09;;;;;;;2.58;2.30;;;;;;;;;;5050400;28;20203;-34
2023/07/09 01:15:37;;;;;;;3.08;2.60;;;;;;;;;;5050164;28;20217;-33
2023/07/09 01:18:04;;;;;;;2.75;2.50;;;;;;;;;;5045278;28;20236;-31
2023/07/09 01:23:07;;;;;;;3.65;3.15;;;;;;;;;;5157615;23;20290;-31
2023/07/09 01:25:34;;;;;;;2.60;2.40;;;;;;;;;;5084693;28;20298;-32
2023/07/09 01:28:01;;;;;;;3.10;2.80;;;;;;;;;;5087552;28;20239;-36
2023/07/09 01:30:31;;;;;;;3.30;2.50;;;;;;;;;;5095638;28;20207;-31
2023/07/09 01:33:00;;;;;;;5.65;2.97;;;;;;;;;;5092087;28;20211;-31
2023/07/09 01:35:28;;;;;;;2.67;2.47;;;;;;;;;;5105974;28;20212;-34
2023/07/09 01:37:56;;;;;;;3.75;2.60;;;;;;;;;;5098965;28;20232;-34
2023/07/09 01:40:27;;;;;;;3.45;2.67;;;;;;;;;;5092822;28;20214;-32
2023/07/09 01:42:55;;;;;;;2.90;2.35;;;;;;;;;;5092772;28;20314;-32
2023/07/09 01:45:23;;;;;;;2.47;2.28;;;;;;;;;;5090598;28;20264;-31
2023/07/09 01:47:50;;;;;;;3.97;2.53;;;;;;;;;;5090602;28;20313;-33
2023/07/09 01:50:18;;;;;;;2.88;2.50;;;;;;;;;;5095680;28;20207;-33
2023/07/09 01:52:46;;;;;;;7.07;2.60;;;;;;;;;;5094277;28;20203;-31
2023/07/09 01:55:16;;;;;;;3.00;2.70;;;;;;;;;;5105648;28;20271;-33
2023/07/09 01:57:45;;;;;;;4.80;2.35;;;;;;;;;;5096758;28;20283;-33
2023/07/09 02:00:14;;;;;;;3.78;2.65;;;;;;;;;;5090931;28;20205;-29
2023/07/09 02:02:42;;;;;;;3.55;2.88;;;;;;;;;;5099523;28;20660;-33
2023/07/09 02:05:10;;;;;;;2.78;2.50;;;;;;;;;;5099531;28;20335;-31
2023/07/09 02:07:37;;;;;;;4.00;2.85;;;;;;;;;;5092011;28;20213;-30
2023/07/09 02:10:04;;;;;;;4.28;2.53;;;;;;;;;;5101780;28;20204;-32
2023/07/09 02:12:31;;;;;;;3.05;2.58;;;;;;;;;;5097813;28;20288;-34
2023/07/09 02:15:00;;;;;;;3.63;2.65;;;;;;;;;;5109885;28;20208;-32
2023/07/09 02:17:27;;;;;;;3.38;2.55;;;;;;;;;;5109959;28;20212;-32
2023/07/09 02:19:54;;;;;;;3.05;2.42;;;;;;;;;;5093558;28;20652;-33
2023/07/09 02:22:21;;;;;;;3.15;2.75;;;;;;;;;;5102050;28;20229;-34
2023/07/09 02:24:48;;;;;;;3.72;2.90;;;;;;;;;;5091145;28;20230;-33
2023/07/09 02:27:16;;;;;;;3.70;2.65;;;;;;;;;;5095492;28;20213;-33
2023/07/09 02:29:44;;;;;;;4.05;2.65;;;;;;;;;;5089645;28;20217;-34
2023/07/09 02:32:15;;;;;;;2.67;2.40;;;;;;;;;;5104760;28;20224;-34
2023/07/09 02:34:42;;;;;;;3.75;2.50;;;;;;;;;;5100042;28;20675;-35
2023/07/09 02:37:09;;;;;;;3.10;2.80;;;;;;;;;;5103986;28;20197;-32
2023/07/09 02:39:36;;;;;;;6.22;2.85;;;;;;;;;;5094046;28;20219;-34
2023/07/09 02:42:03;;;;;;;4.22;2.67;;;;;;;;;;5102019;28;20207;-34
2023/07/09 02:44:30;;;;;;;2.65;2.20;;;;;;;;;;5097924;28;20217;-32
2023/07/09 02:46:57;;;;;;;3.67;2.67;;;;;;;;;;5089312;28;20316;-34
2023/07/09 02:49:26;;;;;;;3.80;2.40;;;;;;;;;;5088906;28;20231;-31
2023/07/09 02:51:53;;;;;;;5.93;3.10;;;;;;;;;;5092119;28;20213;-34
2023/07/09 02:54:20;;;;;;;3.22;2.67;;;;;;;;;;5101235;28;20299;-32
2023/07/09 02:56:48;;;;;;;4.18;2.53;;;;;;;;;;5099559;28;20212;-36
2023/07/09 02:59:15;;;;;;;3.65;2.55;;;;;;;;;;5089086;28;20224;-34
2023/07/09 03:01:43;;;;;;;3.03;2.30;;;;;;;;;;5097674;28;20201;-33
2023/07/09 03:04:10;;;;;;;4.88;2.65;;;;;;;;;;5102701;28;20228;-35
2023/07/09 03:06:38;;;;;;;2.90;2.60;;;;;;;;;;5098580;28;20212;-32
2023/07/09 03:09:05;;;;;;;4.25;2.70;;;;;;;;;;5110185;28;20233;-32
2023/07/09 03:11:33;;;;;;;2.45;2.10;;;;;;;;;;5098277;28;20205;-34
2023/07/09 03:14:00;;;;;;;3.90;2.55;;;;;;;;;;5100460;28;20420;-31
2023/07/09 03:16:28;;;;;;;3.38;2.70;;;;;;;;;;5092525;28;20205;-34
2023/07/09 03:18:56;;;;;;;3.08;2.70;;;;;;;;;;5095866;28;20233;-31
2023/07/09 03:21:23;;;;;;;4.82;3.00;;;;;;;;;;5102213;28;20220;-34
2023/07/09 03:23:52;;;;;;;4.82;3.20;;;;;;;;;;5113388;28;20314;-34
2023/07/09 03:26:19;;;;;;;3.85;2.58;;;;;;;;;;5097387;28;20209;-33
2023/07/09 03:28:46;;;;;;;6.80;2.95;;;;;;;;;;5100681;28;20227;-30
2023/07/09 03:31:13;;;;;;;2.88;2.45;;;;;;;;;;5095511;28;20204;-34
2023/07/09 03:33:40;;;;;;;2.85;2.53;;;;;;;;;;5107622;28;20213;-31
2023/07/09 03:36:08;;;;;;;2.67;2.47;;;;;;;;;;5097555;28;20193;-31
2023/07/09 03:38:35;;;;;;;3.50;2.78;;;;;;;;;;5114435;28;20702;-34
2023/07/09 03:41:03;;;;;;;4.60;2.55;;;;;;;;;;5102703;28;20207;-33
2023/07/09 03:43:30;;;;;;;3.35;2.50;;;;;;;;;;5105207;28;20216;-31
2023/07/09 03:45:57;;;;;;;4.70;2.90;;;;;;;;;;5106715;28;20201;-29
2023/07/09 03:48:25;;;;;;;4.00;2.55;;;;;;;;;;5094729;28;20225;-33
2023/07/09 03:50:52;;;;;;;4.40;2.83;;;;;;;;;;5094861;28;20213;-32
2023/07/09 03:53:19;;;;;;;3.55;2.55;;;;;;;;;;5100515;28;20196;-33
2023/07/09 03:55:47;;;;;;;2.88;2.40;;;;;;;;;;5103026;28;20211;-35
2023/07/09 03:58:16;;;;;;;3.13;2.78;;;;;;;;;;5105374;28;20225;-30
2023/07/09 04:00:44;;;;;;;4.07;2.67;;;;;;;;;;5097260;28;20296;-32
2023/07/09 04:03:12;;;;;;;5.72;2.33;;;;;;;;;;5094572;28;20221;-33
2023/07/09 04:05:39;;;;;;;4.43;3.03;;;;;;;;;;5102609;28;20204;-35
2023/07/09 04:08:06;;;;;;;2.97;2.67;;;;;;;;;;5106095;28;20223;-31
2023/07/09 04:10:34;;;;;;;3.38;2.75;;;;;;;;;;5103479;28;20208;-31
2023/07/09 04:13:01;;;;;;;3.10;2.80;;;;;;;;;;5099443;28;20201;-35
2023/07/09 04:15:29;;;;;;;3.17;2.88;;;;;;;;;;5093876;28;20273;-31
2023/07/09 04:17:56;;;;;;;4.13;2.58;;;;;;;;;;5093870;28;20229;-34
2023/07/09 04:20:29;;;;;;;3.20;2.88;;;;;;;;;;5102212;28;20208;-33
2023/07/09 04:22:56;;;;;;;2.55;2.33;;;;;;;;;;5114468;28;20224;-33
2023/07/09 04:25:23;;;;;;;3.90;3.25;;;;;;;;;;5095899;28;20214;-33
2023/07/09 04:27:51;;;;;;;3.45;2.95;;;;;;;;;;5101707;28;20229;-33
2023/07/09 04:30:18;;;;;;;3.03;2.60;;;;;;;;;;5100085;28;20201;-30
2023/07/09 04:32:47;;;;;;;6.20;2.72;;;;;;;;;;5094339;28;20201;-32
2023/07/09 04:35:14;;;;;;;3.47;2.63;;;;;;;;;;5098356;28;20211;-32
2023/07/09 04:37:42;;;;;;;5.28;2.78;;;;;;;;;;5101910;28;20230;-32
2023/07/09 04:40:11;;;;;;;4.93;2.63;;;;;;;;;;5106436;28;20196;-33
2023/07/09 04:42:39;;;;;;;3.42;3.00;;;;;;;;;;5104981;28;20214;-32
2023/07/09 04:45:07;;;;;;;3.05;2.60;;;;;;;;;;5097788;28;20428;-34
2023/07/09 04:47:35;;;;;;;3.55;2.70;;;;;;;;;;5093035;28;20211;-31
2023/07/09 04:50:03;;;;;;;3.05;2.55;;;;;;;;;;5104194;28;20204;-32
2023/07/09 04:52:31;;;;;;;3.85;2.72;;;;;;;;;;5106334;28;20205;-33
2023/07/09 04:54:58;;;;;;;6.00;2.80;;;;;;;;;;5092455;28;20197;-33
2023/07/09 04:57:26;;;;;;;2.72;2.47;;;;;;;;;;5102049;28;20204;-33
2023/07/09 04:59:53;;;;;;;3.45;2.70;;;;;;;;;;5102623;28;20201;-31
2023/07/09 05:02:20;;;;;;;5.13;3.00;;;;;;;;;;5093133;28;20207;-32
2023/07/09 05:04:47;;;;;;;5.55;2.30;;;;;;;;;;5093096;28;20228;-35
2023/07/09 05:07:16;;;;;;;4.05;2.78;;;;;;;;;;5103793;28;20204;-32
2023/07/09 05:09:43;;;;;;;3.22;2.70;;;;;;;;;;5107808;28;20221;-29
2023/07/09 05:12:10;;;;;;;4.03;2.75;;;;;;;;;;5099129;28;20206;-31
2023/07/09 05:14:37;;;;;;;2.55;2.35;;;;;;;;;;5098383;28;20193;-32
2023/07/09 05:17:05;;;;;;;3.47;2.83;;;;;;;;;;5092035;28;20218;-32
2023/07/09 05:19:32;;;;;;;5.38;3.03;;;;;;;;;;5330404;23;20266;-29
2023/07/09 05:21:59;;;;;;;2.92;2.67;;;;;;;;;;5092825;28;20216;-28
2023/07/09 05:24:28;;;;;;;4.60;3.03;;;;;;;;;;5088626;28;20222;-27
2023/07/09 05:26:55;;;;;;;3.28;2.80;;;;;;;;;;5089458;28;20207;-28
2023/07/09 05:29:22;;;;;;;3.25;2.80;;;;;;;;;;5076360;28;20221;-26
2023/07/09 05:31:49;;;;;;;2.90;2.58;;;;;;;;;;5072854;28;20206;-28
2023/07/09 05:34:16;;;;;;;3.67;3.20;;;;;;;;;;5061187;28;20198;-28
2023/07/09 05:36:44;;;;;;;3.30;3.00;;;;;;;;;;5069818;28;20211;-29
2023/07/09 05:39:11;;;;;;;3.45;2.63;;;;;;;;;;5071407;28;20929;-28
2023/07/09 05:41:40;;;;;;;5.63;2.88;;;;;;;;;;5065973;28;20209;-26
2023/07/09 05:44:07;;;;;;;4.07;2.80;;;;;;;;;;5072385;28;20222;-29
2023/07/09 05:46:37;;;;;;;3.55;2.67;;;;;;;;;;5072920;28;20214;-29
2023/07/09 05:49:04;;;;;;;2.88;2.58;;;;;;;;;;5065324;28;20226;-27
2023/07/09 05:51:31;;;;;;;2.90;2.60;;;;;;;;;;5066741;28;20206;-28
2023/07/09 05:53:58;;;;;;;3.20;2.90;;;;;;;;;;5069401;28;20195;-28
2023/07/09 05:56:25;;;;;;;3.28;2.60;;;;;;;;;;5064346;28;20214;-26
2023/07/09 05:58:55;;;;;;;3.60;2.60;;;;;;;;;;5071490;28;20230;-26
2023/07/09 06:01:22;;;;;;;6.28;3.47;;;;;;;;;;5072966;28;20253;-25
2023/07/09 06:03:49;;;;;;;3.58;2.80;;;;;;;;;;5066849;28;20226;-29
2023/07/09 06:06:31;;;;;;;3.15;2.53;;;;;;;;;;5070615;28;20215;-28
2023/07/09 06:08:58;;;;;;;4.95;3.20;;;;;;;;;;5071979;28;20220;-26
2023/07/09 06:11:25;;;;;;;4.05;3.03;;;;;;;;;;5067561;28;20209;-28
2023/07/09 06:13:52;;;;;;;4.80;2.83;;;;;;;;;;5072155;28;20208;-26
2023/07/09 06:16:21;;;;;;;4.70;2.63;;;;;;;;;;5072285;28;20211;-28
2023/07/09 06:18:48;;;;;;;3.65;2.78;;;;;;;;;;5061841;28;20225;-25
2023/07/09 06:21:15;;;;;;;3.72;2.88;;;;;;;;;;5060423;28;20222;-28
2023/07/09 06:23:42;;;;;;;3.00;2.70;;;;;;;;;;5062612;28;20232;-27
2023/07/09 06:26:12;;;;;;;3.25;2.58;;;;;;;;;;5064101;28;20204;-27
2023/07/09 06:28:39;;;;;;;3.63;2.92;;;;;;;;;;5071440;28;20232;-26
2023/07/09 06:31:07;;;;;;;5.30;3.03;;;;;;;;;;5072797;28;20283;-26
2023/07/09 06:33:43;;;;;;;4.93;3.20;;;;;;;;;;5064580;28;20217;-24
2023/07/09 06:36:12;;;;;;;3.95;3.20;;;;;;;;;;5065102;28;20205;-26
2023/07/09 06:38:47;;;;;;;5.63;3.00;;;;;;;;;;5071995;28;20260;-27
2023/07/09 06:41:15;;;;;;;3.03;2.70;;;;;;;;;;5062980;28;20201;-28
2023/07/09 06:43:42;;;;;;;3.42;3.13;;;;;;;;;;5069691;28;20249;-28
2023/07/09 06:46:20;;;;;;;4.93;3.15;;;;;;;;;;5072057;28;20207;-25
2023/07/09 06:48:47;;;;;;;3.40;3.00;;;;;;;;;;5073288;28;20235;-27
2023/07/09 06:51:16;;;;;;;3.53;3.03;;;;;;;;;;5071573;28;20212;-27
2023/07/09 06:53:47;;;;;;;4.78;2.55;;;;;;;;;;5073293;28;20201;-28
2023/07/09 06:56:14;;;;;;;3.38;3.03;;;;;;;;;;5057535;28;20207;-26
2023/07/09 06:58:42;;;;;;;3.40;2.92;;;;;;;;;;5073939;28;20229;-28
2023/07/09 07:01:10;;;;;;;4.55;2.92;;;;;;;;;;5075553;28;20208;-28
2023/07/09 07:03:38;;;;;;;5.05;3.47;;;;;;;;;;5075400;28;20237;-27
2023/07/09 07:06:06;;;;;;;4.32;2.70;;;;;;;;;;5064430;28;20205;-26
2023/07/09 07:08:36;;;;;;;3.60;2.72;;;;;;;;;;5071082;28;20221;-28
2023/07/09 07:11:05;;;;;;;4.18;2.88;;;;;;;;;;5062652;28;20596;-28
2023/07/09 07:13:33;;;;;;;5.38;3.03;;;;;;;;;;5071348;28;20235;-30
2023/07/09 07:16:00;;;;;;;6.68;3.10;;;;;;;;;;5072131;28;20284;-27
2023/07/09 07:18:28;;;;;;;4.15;3.10;;;;;;;;;;5074989;28;20253;-28
2023/07/09 07:20:55;;;;;;;7.22;4.03;;;;;;;;;;5075017;28;20232;-27
2023/07/09 07:23:23;;;;;;;4.03;2.92;;;;;;;;;;5065600;28;20228;-28
2023/07/09 07:25:52;;;;;;;7.18;3.33;;;;;;;;;;5061769;28;20213;-29
2023/07/09 07:28:19;;;;;;;4.50;3.08;;;;;;;;;;5073840;28;20247;-29
2023/07/09 07:30:46;;;;;;;4.13;2.88;;;;;;;;;;5074770;28;20212;-31
2023/07/09 07:33:16;;;;;;;6.20;2.95;;;;;;;;;;5059318;28;20205;-31
2023/07/09 07:35:43;;;;;;;3.40;3.10;;;;;;;;;;5069494;28;20237;-32
2023/07/09 07:38:10;;;;;;;4.15;3.13;;;;;;;;;;5074197;28;20221;-29
2023/07/09 07:40:38;;;;;;;3.42;3.05;;;;;;;;;;5071049;28;20255;-31
2023/07/09 07:43:06;;;;;;;3.17;2.85;;;;;;;;;;5072602;28;20211;-28
2023/07/09 07:45:33;;;;;;;5.00;3.00;;;;;;;;;;5072166;28;20716;-31
2023/07/09 07:48:00;;;;;;;4.60;2.80;;;;;;;;;;5067690;28;20240;-29
2023/07/09 07:50:27;;;;;;;4.88;3.40;;;;;;;;;;5069088;28;20197;-30
2023/07/09 07:52:55;;;;;;;5.78;3.40;;;;;;;;;;5063400;28;20578;-28
2023/07/09 07:55:22;;;;;;;4.97;3.40;;;;;;;;;;5063874;28;20206;-31
2023/07/09 07:57:49;;;;;;;4.80;3.28;;;;;;;;;;5072666;28;20225;-31
2023/07/09 08:00:18;;;;;;;5.38;3.50;;;;;;;;;;5073574;28;20197;-31
2023/07/09 08:02:45;;;;;;;4.00;3.22;;;;;;;;;;5073705;28;20197;-30
2023/07/09 08:05:12;;;;;;;3.42;3.13;;;;;;;;;;5060520;28;20719;-30
2023/07/09 08:07:39;;;;;;;4.75;3.30;;;;;;;;;;5067972;28;20224;-29
2023/07/09 08:10:07;;;;;;;7.88;3.50;;;;;;;;;;5067918;28;20229;-30
2023/07/09 08:12:34;;;;;;;3.80;3.03;;;;;;;;;;5068656;28;20209;-31
2023/07/09 08:15:01;;;;;;;4.05;3.53;;;;;;;;;;5071927;28;20220;-31
2023/07/09 08:17:30;;;;;;;3.85;3.22;;;;;;;;;;5071847;28;20198;-31
2023/07/09 08:19:57;;;;;;;4.13;3.08;;;;;;;;;;5064069;28;20209;-35
2023/07/09 08:22:24;;;;;;;4.50;3.10;;;;;;;;;;5067763;28;20213;-31
2023/07/09 08:24:52;;;;;;;4.80;3.08;;;;;;;;;;5067504;28;20352;-30
2023/07/09 08:27:19;;;;;;;4.93;3.20;;;;;;;;;;5071033;28;20201;-31
2023/07/09 08:29:46;;;;;;;4.47;3.05;;;;;;;;;;5072016;28;20217;-30
2023/07/09 08:32:14;;;;;;;4.75;2.92;;;;;;;;;;5071932;28;20335;-30
2023/07/09 08:34:43;;;;;;;6.60;3.70;;;;;;;;;;5068568;28;20292;-33
2023/07/09 08:37:11;;;;;;;5.47;3.33;;;;;;;;;;5067199;28;20205;-32
2023/07/09 08:39:38;;;;;;;4.82;3.45;;;;;;;;;;5064305;28;20230;-31
2023/07/09 08:42:10;;;;;;;2.72;2.53;;;;;;;;;;5064188;28;20311;-29
2023/07/09 08:44:55;;;;;;;4.55;2.80;;;;;;;;;;5071418;28;20270;-34
2023/07/09 08:47:26;;;;;;;3.28;2.97;;;;;;;;;;5070735;28;20608;-31
2023/07/09 08:49:56;;;;;;;4.80;3.03;;;;;;;;;;5059958;28;20556;-29
2023/07/09 08:52:27;;;;;;;3.17;2.70;;;;;;;;;;5070821;28;20714;-33
2023/07/09 08:54:56;;;;;;;5.35;3.45;;;;;;;;;;5067236;28;20193;-29
2023/07/09 08:57:25;;;;;;;3.53;2.75;;;;;;;;;;5067304;28;20209;-31
2023/07/09 08:59:55;;;;;;;6.53;3.40;;;;;;;;;;5071041;28;20193;-32
2023/07/09 09:02:29;;;;;;;4.75;2.95;;;;;;;;;;5070800;28;20205;-32
2023/07/09 09:04:57;;;;;;;5.72;3.40;;;;;;;;;;5063660;28;20233;-30
2023/07/09 09:07:30;;;;;;;4.72;2.90;;;;;;;;;;5063716;28;20202;-32
2023/07/09 09:09:59;;;;;;;4.57;2.60;;;;;;;;;;5063569;28;20656;-30
2023/07/09 09:12:28;;;;;;;5.10;2.97;;;;;;;;;;5067183;28;20235;-28
2023/07/09 09:14:59;;;;;;;3.97;3.03;;;;;;;;;;5072811;28;20193;-30
2023/07/09 09:17:29;;;;;;;4.50;3.20;;;;;;;;;;5072658;28;20190;-30
2023/07/09 09:19:59;;;;;;;4.43;2.88;;;;;;;;;;5057057;28;20217;-31
2023/07/09 09:22:29;;;;;;;6.25;2.95;;;;;;;;;;5068241;28;20216;-30
2023/07/09 09:24:58;;;;;;;5.85;3.03;;;;;;;;;;5067029;28;20225;-31
2023/07/09 09:27:26;;;;;;;6.10;3.20;;;;;;;;;;5067206;28;20209;-33
2023/07/09 09:29:53;;;;;;;3.58;2.90;;;;;;;;;;5070515;28;20220;-28
2023/07/09 09:32:23;;;;;;;4.28;2.67;;;;;;;;;;5070373;28;20204;-29
2023/07/09 09:34:50;;;;;;;4.35;2.90;;;;;;;;;;5064792;28;20205;-32
2023/07/09 09:37:25;;;;;;;6.97;3.45;;;;;;;;;;5071943;28;20576;-30
2023/07/09 09:39:52;;;;;;;3.53;2.75;;;;;;;;;;5067211;28;20445;-32
2023/07/09 09:42:19;;;;;;;3.15;2.85;;;;;;;;;;5070161;28;20220;-31
2023/07/09 09:44:47;;;;;;;3.90;2.85;;;;;;;;;;5071994;28;20225;-28
2023/07/09 09:47:14;;;;;;;4.63;2.50;;;;;;;;;;5071917;28;20220;-30
2023/07/09 09:49:41;;;;;;;3.03;2.60;;;;;;;;;;5062764;28;20228;-30
2023/07/09 09:52:12;;;;;;;5.90;2.42;;;;;;;;;;5071759;28;20193;-31
2023/07/09 09:54:42;;;;;;;3.78;2.35;;;;;;;;;;5070232;28;20663;-29
2023/07/09 09:57:17;;;;;;;7.80;2.35;;;;;;;;;;5066769;28;20656;-31
2023/07/09 09:59:44;;;;;;;2.60;2.28;;;;;;;;;;5067695;28;20240;-31
2023/07/09 10:02:17;;;;;;;3.38;2.28;;;;;;;;;;5066705;28;20205;-29
2023/07/09 10:04:44;;;;;;;5.13;2.67;;;;;;;;;;5069134;28;20244;-31
2023/07/09 10:07:14;;;;;;;5.75;2.92;;;;;;;;;;5069896;28;20201;-31
2023/07/09 10:09:47;;;;;;;2.83;2.40;;;;;;;;;;5056160;28;20229;-30
2023/07/09 10:12:16;;;;;;;3.33;2.72;;;;;;;;;;5068614;28;20215;-30
2023/07/09 10:14:51;;;;;;;3.63;2.88;;;;;;;;;;5067674;28;20205;-30
2023/07/09 10:17:22;;;;;;;3.20;2.90;;;;;;;;;;5069930;28;20547;-30
2023/07/09 10:19:51;;;;;;;4.82;2.47;;;;;;;;;;5067527;28;20224;-32
2023/07/09 10:22:24;;;;;;;4.78;2.90;;;;;;;;;;5072183;28;20201;-30
2023/07/09 10:25:02;;;;;;;3.55;3.10;;;;;;;;;;5071053;28;20213;-29
2023/07/09 10:27:33;;;;;;;4.30;3.30;;;;;;;;;;5068909;28;20200;-29
2023/07/09 10:30:09;;;;;;;4.13;2.80;;;;;;;;;;5074153;28;20197;-32
2023/07/09 10:32:42;;;;;;;5.28;3.40;;;;;;;;;;5066033;28;20212;-30
2023/07/09 10:35:13;;;;;;;4.10;3.00;;;;;;;;;;5067212;28;20203;-28
2023/07/09 10:37:48;;;;;;;5.20;3.33;;;;;;;;;;5073705;28;20201;-31
2023/07/09 10:40:19;;;;;;;4.63;2.83;;;;;;;;;;5069969;28;20192;-31
2023/07/09 10:42:47;;;;;;;4.53;2.78;;;;;;;;;;5070117;28;20197;-32
2023/07/09 10:45:16;;;;;;;4.90;2.83;;;;;;;;;;5074481;28;20217;-32
2023/07/09 10:47:45;;;;;;;3.80;3.03;;;;;;;;;;5073396;28;20228;-30
2023/07/09 10:50:16;;;;;;;4.22;2.92;;;;;;;;;;5068689;28;20215;-30
2023/07/09 10:52:45;;;;;;;3.22;2.92;;;;;;;;;;5070198;28;20216;-30
2023/07/09 10:55:17;;;;;;;7.07;2.53;;;;;;;;;;5064161;28;20205;-32
2023/07/09 10:57:47;;;;;;;7.88;3.35;;;;;;;;;;5058268;28;20774;-29
2023/07/09 11:00:17;;;;;;;4.38;2.80;;;;;;;;;;5064403;28;20216;-31
2023/07/09 11:02:54;;;;;;;4.55;3.28;;;;;;;;;;5053608;28;20596;-30
2023/07/09 11:05:22;;;;;;;3.97;3.20;;;;;;;;;;5057943;28;20239;-28
2023/07/09 11:07:58;;;;;;;4.65;2.53;;;;;;;;;;5066055;28;20244;-29
2023/07/09 11:10:27;;;;;;;3.90;3.10;;;;;;;;;;5056581;28;20222;-29
2023/07/09 11:12:59;;;;;;;4.47;3.28;;;;;;;;;;5063063;28;20723;-30
2023/07/09 11:15:29;;;;;;;2.95;2.70;;;;;;;;;;5064756;28;20208;-31
2023/07/09 11:17:59;;;;;;;3.20;2.65;;;;;;;;;;5061411;28;20229;-29
2023/07/09 11:20:27;;;;;;;5.78;3.10;;;;;;;;;;5061339;28;20228;-32
2023/07/09 11:22:55;;;;;;;5.22;2.80;;;;;;;;;;5068629;28;20231;-31
2023/07/09 11:25:32;;;;;;;5.82;3.20;;;;;;;;;;5054787;28;20224;-30
2023/07/09 11:28:10;;;;;;;5.10;3.20;;;;;;;;;;5068263;28;20655;-27
2023/07/09 11:30:49;;;;;;;6.13;3.38;;;;;;;;;;5072563;28;20220;-28
2023/07/09 11:33:21;;;;;;;3.60;2.90;;;;;;;;;;5072343;28;20247;-30
2023/07/09 11:35:50;;;;;;;4.15;3.10;;;;;;;;;;5058556;28;20198;-30
2023/07/09 11:38:18;;;;;;;4.75;3.10;;;;;;;;;;5062754;28;20320;-28
2023/07/09 11:40:50;;;;;;;3.10;2.78;;;;;;;;;;5064346;28;20205;-32
2023/07/09 11:43:32;;;;;;;5.38;3.45;;;;;;;;;;5069974;28;20197;-28
2023/07/09 11:46:05;;;;;;;5.10;3.22;;;;;;;;;;5071742;28;20213;-28
2023/07/09 11:48:34;;;;;;;7.38;3.30;;;;;;;;;;5072098;28;20384;-29
2023/07/09 11:51:05;;;;;;;5.43;3.10;;;;;;;;;;5057718;28;20236;-29
2023/07/09 11:53:36;;;;;;;5.15;3.80;;;;;;;;;;5071444;28;20194;-33
2023/07/09 11:56:04;;;;;;;7.68;3.25;;;;;;;;;;5062666;28;20212;-30
2023/07/09 11:58:32;;;;;;;5.63;3.33;;;;;;;;;;5073498;28;20284;-28
2023/07/09 12:01:01;;;;;;;5.13;3.00;;;;;;;;;;5074799;28;20212;-27
2023/07/09 12:03:29;;;;;;;5.10;3.05;;;;;;;;;;5074216;28;20264;-28
2023/07/09 12:05:57;;;;;;;8.45;3.60;;;;;;;;;;5069657;28;20251;-29
2023/07/09 12:08:28;;;;;;;8.48;3.60;;;;;;;;;;5288083;22;20604;-24
2023/07/09 12:11:26;;;;;;;9.40;3.55;;;;;;;;;;5020776;28;20199;-25
2023/07/09 12:13:55;;;;;;;4.00;3.15;;;;;;;;;;5027441;28;20202;-22
2023/07/09 12:16:23;;;;;;;6.30;3.65;;;;;;;;;;5034978;28;20195;-22
2023/07/09 12:18:50;;;;;;;5.38;3.47;;;;;;;;;;5034906;28;20227;-23
2023/07/09 12:21:17;;;;;;;5.25;3.28;;;;;;;;;;5030084;28;20213;-24
2023/07/09 12:23:44;;;;;;;6.85;3.38;;;;;;;;;;5034563;28;20206;-26
2023/07/09 12:26:13;;;;;;;5.88;2.80;;;;;;;;;;5029166;28;20226;-25
2023/07/09 12:28:40;;;;;;;6.53;3.08;;;;;;;;;;5033052;28;20229;-25
2023/07/09 12:31:14;;;;;;;5.25;3.42;;;;;;;;;;5034011;28;20202;-25
2023/07/09 12:33:48;;;;;;;5.32;3.47;;;;;;;;;;5027919;28;20203;-25
2023/07/09 12:36:15;;;;;;;6.78;3.92;;;;;;;;;;5030001;28;20201;-25
2023/07/09 12:38:44;;;;;;;4.88;3.28;;;;;;;;;;5033166;28;20692;-26
2023/07/09 12:41:18;;;;;;;4.93;3.22;;;;;;;;;;5026757;28;20206;-25
2023/07/09 12:43:45;;;;;;;4.05;3.10;;;;;;;;;;5031209;28;20226;-25
2023/07/09 12:46:14;;;;;;;3.55;3.25;;;;;;;;;;5032387;28;20222;-26
2023/07/09 12:48:41;;;;;;;4.38;3.30;;;;;;;;;;5025070;28;20226;-22
2023/07/09 12:51:10;;;;;;;3.88;2.95;;;;;;;;;;5027083;28;20211;-25
2023/07/09 12:53:38;;;;;;;5.45;3.17;;;;;;;;;;5033423;28;20637;-23
2023/07/09 12:56:13;;;;;;;3.67;3.28;;;;;;;;;;5025062;28;20198;-28
2023/07/09 12:58:40;;;;;;;4.63;3.20;;;;;;;;;;5020441;28;20258;-27
2023/07/09 13:01:09;;;;;;;5.35;3.20;;;;;;;;;;5029338;28;20210;-28
2023/07/09 13:03:37;;;;;;;5.32;3.25;;;;;;;;;;5032402;28;20229;-24
2023/07/09 13:06:05;;;;;;;6.75;3.53;;;;;;;;;;5026349;28;20240;-25
2023/07/09 13:08:33;;;;;;;8.43;3.33;;;;;;;;;;5035125;28;20229;-25
2023/07/09 13:11:01;;;;;;;5.22;3.33;;;;;;;;;;5062843;28;20565;-26
2023/07/09 13:13:28;;;;;;;4.65;3.60;;;;;;;;;;5070676;28;20573;-25
2023/07/09 13:15:58;;;;;;;5.47;2.60;;;;;;;;;;5072041;28;20278;-29
2023/07/09 13:18:26;;;;;;;4.95;3.05;;;;;;;;;;5072977;28;20500;-28
2023/07/09 13:20:56;;;;;;;3.55;2.65;;;;;;;;;;5068351;28;20205;-27
2023/07/09 13:23:25;;;;;;;5.43;3.08;;;;;;;;;;5072254;28;20197;-28
2023/07/09 13:25:54;;;;;;;4.45;3.13;;;;;;;;;;5065672;28;20234;-26
2023/07/09 13:28:26;;;;;;;3.78;3.10;;;;;;;;;;5069538;28;20307;-27
2023/07/09 13:30:54;;;;;;;4.32;2.97;;;;;;;;;;5072729;28;20228;-26
2023/07/09 13:33:21;;;;;;;3.50;2.83;;;;;;;;;;5070899;28;20275;-27
2023/07/09 13:35:49;;;;;;;4.70;3.38;;;;;;;;;;5072573;28;20200;-25
2023/07/09 13:38:18;;;;;;;3.45;3.15;;;;;;;;;;5070940;28;20209;-25
2023/07/09 13:40:46;;;;;;;5.63;3.03;;;;;;;;;;5060933;28;20216;-27
2023/07/09 13:43:14;;;;;;;6.88;3.25;;;;;;;;;;5067923;28;20212;-28
2023/07/09 13:45:41;;;;;;;5.00;2.90;;;;;;;;;;5072273;28;20201;-26
2023/07/09 13:48:13;;;;;;;5.05;2.85;;;;;;;;;;5066864;28;20231;-28
2023/07/09 13:50:40;;;;;;;4.63;3.45;;;;;;;;;;5068655;28;20207;-29
2023/07/09 13:53:11;;;;;;;5.60;3.15;;;;;;;;;;5072357;28;20288;-27
2023/07/09 13:55:39;;;;;;;3.95;2.88;;;;;;;;;;5061108;28;20206;-29
2023/07/09 13:58:06;;;;;;;4.28;3.10;;;;;;;;;;5069123;28;20225;-28
2023/07/09 14:00:34;;;;;;;4.50;3.28;;;;;;;;;;5072640;28;20211;-28
2023/07/09 14:03:01;;;;;;;5.07;3.08;;;;;;;;;;5066599;28;20558;-26
2023/07/09 14:05:28;;;;;;;5.57;3.88;;;;;;;;;;5066003;28;20215;-27
2023/07/09 14:07:55;;;;;;;4.68;3.53;;;;;;;;;;5072533;28;20244;-25
2023/07/09 14:10:23;;;;;;;3.30;2.55;;;;;;;;;;5070227;28;20565;-26
2023/07/09 14:12:52;;;;;;;3.60;2.80;;;;;;;;;;5073087;28;20215;-26
2023/07/09 14:15:20;;;;;;;7.40;3.40;;;;;;;;;;5071821;28;20208;-26
2023/07/09 14:17:48;;;;;;;5.80;3.50;;;;;;;;;;5072152;28;20221;-27
2023/07/09 14:20:16;;;;;;;5.00;3.53;;;;;;;;;;5063386;28;20197;-28
2023/07/09 14:22:44;;;;;;;3.75;2.75;;;;;;;;;;5071781;28;20548;-27
2023/07/09 14:25:16;;;;;;;5.10;2.97;;;;;;;;;;5063339;28;20201;-28
2023/07/09 14:27:44;;;;;;;5.82;3.42;;;;;;;;;;5068358;28;20286;-27
2023/07/09 14:30:15;;;;;;;4.10;2.80;;;;;;;;;;5071947;28;20232;-26
2023/07/09 14:32:44;;;;;;;3.80;2.83;;;;;;;;;;5067151;28;20205;-25
2023/07/09 14:35:13;;;;;;;5.00;3.50;;;;;;;;;;5065852;28;20269;-27
2023/07/09 14:37:40;;;;;;;4.88;3.38;;;;;;;;;;5068442;28;20201;-28
2023/07/09 14:40:08;;;;;;;5.25;2.95;;;;;;;;;;5063638;28;20228;-29
2023/07/09 14:42:35;;;;;;;6.35;3.50;;;;;;;;;;5066009;28;20205;-25
2023/07/09 14:45:03;;;;;;;12.73;3.13;;;;;;;;;;5063820;28;20201;-27
2023/07/09 14:47:31;;;;;;;5.32;2.90;;;;;;;;;;5065506;28;20291;-29
2023/07/09 14:49:58;;;;;;;5.30;2.78;;;;;;;;;;5069301;28;20659;-25
2023/07/09 14:52:25;;;;;;;5.38;2.83;;;;;;;;;;5071188;28;20197;-27
2023/07/09 14:54:53;;;;;;;3.00;2.75;;;;;;;;;;5066886;28;20201;-28